Newington, Connecticut
Current Conditions -  °F | °C
As of 10:53 PM on Tuesday 21 Oct 2014 (Local Time) from KHFD Reporting Station
Light Rain Light Rain  
Wind Chill: 55°   Ceiling: 1900
Heat Index: 55°   Visibility: 10mi
Dew Point: 50°   Wind: 8mph
Humidity: 83%   Direction: 360°N
Pressure: 29.96"   Gusts: NA
Location:  41.7°N, 72.73°W
Report Text: KHFD 220253Z 36007KT 10SM -RA OVC019 13/10 A2996 RMK AO2 RAB31 SLP144 P0000 60000 T01280100 51016
Loading
Personal Weather Stations






























Interactive Weather Map New forecast layout! Learn more

10-Day Weather Forecast

Advertisements
Track Severe Weather on mobile